Time;durP1;ratioP1;P1;durP2;ratioP2;P2;SDS_P1;SDS_P2;PMS_P1;PMS_P2;Temp;Humidity;BMP_temperature;BMP_pressure;BME280_temperature;BME280_humidity;BME280_pressure;Samples;Min_cycle;Max_cycle;Signal;HPM_P1;HPM_P2
2021/12/17 00:00:07;;;;;;;74.15;20.38;;;8.40;99.90;;;;;;5005639;28;20045;-73
2021/12/17 00:05:10;;;;;;;69.55;18.48;;;8.40;99.90;;;;;;5003333;28;20084;-73
2021/12/17 00:07:36;;;;;;;69.50;18.33;;;8.40;99.90;;;;;;5001489;28;20037;-73
2021/12/17 00:10:09;;;;;;;68.38;19.27;;;8.40;99.90;;;;;;5020482;28;20029;-73
2021/12/17 00:12:35;;;;;;;73.18;17.75;;;8.40;99.90;;;;;;5006929;28;20159;-73
2021/12/17 00:15:05;;;;;;;61.83;17.95;;;8.40;99.90;;;;;;5002402;28;20693;-73
2021/12/17 00:17:36;;;;;;;73.03;19.20;;;8.40;99.90;;;;;;5002977;28;20041;-73
2021/12/17 00:20:37;;;;;;;77.30;20.08;;;8.30;99.90;;;;;;5004903;28;20049;-73
2021/12/17 00:53:20;;;;;;;104.47;22.08;;;8.40;99.90;;;;;;5000634;28;20046;-73
2021/12/17 00:55:47;;;;;;;83.22;20.40;;;8.30;99.90;;;;;;5021526;28;20041;-73
2021/12/17 00:58:13;;;;;;;78.80;20.48;;;8.30;99.90;;;;;;5001426;28;20072;-73
2021/12/17 01:00:39;;;;;;;76.07;19.58;;;8.30;99.90;;;;;;4987858;28;20073;-73
2021/12/17 01:03:05;;;;;;;80.90;19.85;;;8.30;99.90;;;;;;5001912;28;20034;-73
2021/12/17 01:05:31;;;;;;;74.15;19.83;;;8.30;99.90;;;;;;5003113;28;20046;-73
2021/12/17 01:07:59;;;;;;;75.05;20.83;;;8.30;99.90;;;;;;5004376;28;20053;-73
2021/12/17 01:10:34;;;;;;;81.18;20.10;;;8.40;99.90;;;;;;5019101;28;20037;-73
2021/12/17 01:13:01;;;;;;;83.05;21.65;;;8.40;99.90;;;;;;5005051;28;20049;-73
2021/12/17 01:15:27;;;;;;;75.28;21.30;;;8.40;99.90;;;;;;5003281;28;20136;-73
2021/12/17 01:18:00;;;;;;;74.05;20.45;;;8.40;99.90;;;;;;5004718;28;20116;-73
2021/12/17 01:20:53;;;;;;;83.97;20.92;;;8.40;99.90;;;;;;5002356;28;20099;-73
2021/12/17 01:37:04;;;;;;;81.40;20.48;;;8.30;99.90;;;;;;5007863;28;20046;-73
2021/12/17 01:40:34;;;;;;;79.95;20.42;;;8.30;99.90;;;;;;5025431;28;20047;-73
2021/12/17 01:42:16;;;;;;;96.93;21.20;;;8.30;99.90;;;;;;5006016;28;20052;-73
2021/12/17 01:44:42;;;;;;;85.30;20.73;;;8.20;99.90;;;;;;5007572;28;20045;-73
2021/12/17 01:47:10;;;;;;;95.13;20.90;;;8.30;99.90;;;;;;5005121;28;20049;-73
2021/12/17 02:00:19;;;;;;;97.63;21.02;;;8.30;99.90;;;;;;5005721;28;20063;-73
2021/12/17 02:02:53;;;;;;;96.40;22.45;;;8.30;99.90;;;;;;4992858;28;20046;-73
2021/12/17 02:05:19;;;;;;;89.65;21.48;;;8.30;99.90;;;;;;5006103;28;20088;-73
2021/12/17 02:07:47;;;;;;;95.13;21.60;;;8.30;99.90;;;;;;5006944;28;20081;-73
2021/12/17 02:29:11;;;;;;;110.85;20.98;;;8.30;99.90;;;;;;5005917;28;20045;-73
2021/12/17 02:31:37;;;;;;;102.80;20.52;;;8.30;99.90;;;;;;5005113;28;20395;-74
2021/12/17 02:34:16;;;;;;;88.78;19.45;;;8.30;99.90;;;;;;5008481;28;20041;-73
2021/12/17 02:36:44;;;;;;;99.65;19.77;;;8.30;99.90;;;;;;5021517;28;20395;-73
2021/12/17 02:47:06;;;;;;;69.93;17.42;;;8.30;99.90;;;;;;4989139;28;20054;-73
2021/12/17 02:49:32;;;;;;;65.35;17.40;;;8.30;99.90;;;;;;5017181;28;20048;-73
2021/12/17 02:52:01;;;;;;;67.47;17.40;;;8.30;99.90;;;;;;5001789;28;20044;-73
2021/12/17 02:54:28;;;;;;;80.13;18.25;;;8.30;99.90;;;;;;5005750;28;20496;-73
2021/12/17 02:56:54;;;;;;;145.05;20.65;;;8.30;99.90;;;;;;5006714;28;20127;-73
2021/12/17 02:59:20;;;;;;;68.03;18.30;;;8.30;99.90;;;;;;5005375;28;20060;-73
2021/12/17 03:01:48;;;;;;;100.20;19.45;;;8.30;99.90;;;;;;5006522;28;20049;-73
2021/12/17 03:04:17;;;;;;;99.63;19.98;;;8.30;99.90;;;;;;5004018;28;20547;-73
2021/12/17 03:06:44;;;;;;;79.13;18.63;;;8.30;99.90;;;;;;5006114;28;20148;-73
2021/12/17 03:09:11;;;;;;;79.38;18.38;;;8.30;99.90;;;;;;5000496;28;20055;-73
2021/12/17 03:11:37;;;;;;;97.43;20.00;;;8.30;99.90;;;;;;5008512;28;20033;-73
2021/12/17 03:14:03;;;;;;;80.22;18.40;;;8.30;99.90;;;;;;5006473;28;20124;-73
2021/12/17 03:16:35;;;;;;;72.50;18.85;;;8.30;99.90;;;;;;5007522;28;20061;-73
2021/12/17 03:19:10;;;;;;;73.82;17.40;;;8.30;99.90;;;;;;5006426;28;20424;-73
2021/12/17 03:24:22;;;;;;;76.85;17.92;;;8.30;99.90;;;;;;5006112;28;20037;-73
2021/12/17 03:26:48;;;;;;;55.28;16.42;;;8.30;99.90;;;;;;5002903;28;20045;-73
2021/12/17 03:29:14;;;;;;;110.80;20.45;;;8.30;99.90;;;;;;5008446;28;20029;-73
2021/12/17 03:31:40;;;;;;;150.88;21.88;;;8.30;99.90;;;;;;5005545;28;20056;-73
2021/12/17 03:36:36;;;;;;;97.85;18.25;;;8.30;99.90;;;;;;5002725;28;20085;-73
2021/12/17 03:39:02;;;;;;;112.63;20.33;;;8.30;99.90;;;;;;5003943;28;20065;-73
2021/12/17 03:41:36;;;;;;;75.22;18.10;;;8.30;99.90;;;;;;4991537;28;20048;-73
2021/12/17 03:44:03;;;;;;;91.93;18.85;;;8.30;99.90;;;;;;5004839;28;20041;-73
2021/12/17 03:46:29;;;;;;;100.90;19.98;;;8.30;99.90;;;;;;5004942;28;20099;-73
2021/12/17 03:48:55;;;;;;;67.95;17.35;;;8.30;99.90;;;;;;5004211;28;20037;-73
2021/12/17 03:51:20;;;;;;;73.78;17.05;;;8.30;99.90;;;;;;5006184;28;20048;-73
2021/12/17 03:53:56;;;;;;;78.18;18.48;;;8.30;99.90;;;;;;5002710;28;20049;-73
2021/12/17 03:56:23;;;;;;;82.45;18.48;;;8.30;99.90;;;;;;5005090;28;20061;-73
2021/12/17 03:58:52;;;;;;;103.78;19.33;;;8.30;99.90;;;;;;5006181;28;20048;-73
2021/12/17 04:01:18;;;;;;;74.75;19.50;;;8.30;99.90;;;;;;5004950;28;20054;-73
2021/12/17 04:03:43;;;;;;;75.30;17.90;;;8.20;99.90;;;;;;5000578;28;20068;-73
2021/12/17 04:06:09;;;;;;;88.30;18.92;;;8.30;99.90;;;;;;5023106;28;20041;-73
2021/12/17 04:08:35;;;;;;;72.78;17.95;;;8.30;99.90;;;;;;5005641;28;20041;-73
2021/12/17 04:11:08;;;;;;;90.43;19.17;;;8.30;99.90;;;;;;5002160;28;20044;-73
2021/12/17 04:13:37;;;;;;;106.57;19.25;;;8.30;99.90;;;;;;5003366;28;20059;-73
2021/12/17 04:16:09;;;;;;;66.47;18.67;;;8.30;99.90;;;;;;5004681;28;20128;-73
2021/12/17 04:18:38;;;;;;;97.97;18.50;;;8.30;99.90;;;;;;5005796;28;20076;-73
2021/12/17 04:21:09;;;;;;;72.50;17.75;;;8.30;99.90;;;;;;5018968;28;20068;-73
2021/12/17 04:23:35;;;;;;;77.82;17.98;;;8.30;99.90;;;;;;5003356;28;20041;-73
2021/12/17 04:26:00;;;;;;;102.93;18.58;;;8.30;99.90;;;;;;5003431;28;20049;-73
2021/12/17 04:28:26;;;;;;;132.30;20.55;;;8.30;99.90;;;;;;4989481;28;20063;-73
2021/12/17 04:30:52;;;;;;;94.30;19.05;;;8.30;99.90;;;;;;5004360;28;20061;-73
2021/12/17 04:33:18;;;;;;;113.45;18.88;;;8.30;99.90;;;;;;5006555;28;20083;-73
2021/12/17 04:35:44;;;;;;;142.55;20.30;;;8.20;99.90;;;;;;5006899;28;20041;-73
2021/12/17 04:38:12;;;;;;;156.65;21.83;;;8.20;99.90;;;;;;5003338;28;20072;-73
2021/12/17 04:40:41;;;;;;;92.32;18.90;;;8.20;99.90;;;;;;5005286;28;20048;-73
2021/12/17 04:43:18;;;;;;;128.45;21.30;;;8.20;99.90;;;;;;5002848;28;20048;-73
2021/12/17 04:45:53;;;;;;;84.97;18.65;;;8.20;99.90;;;;;;5006262;28;20045;-73
2021/12/17 04:59:16;;;;;;;76.78;18.13;;;8.20;99.90;;;;;;5005115;28;20085;-73
2021/12/17 05:01:41;;;;;;;68.32;16.58;;;8.20;99.90;;;;;;5003270;28;20060;-73
2021/12/17 05:04:07;;;;;;;103.38;17.35;;;8.20;99.90;;;;;;5022519;28;20091;-73
2021/12/17 05:06:33;;;;;;;131.13;19.27;;;8.20;99.90;;;;;;5024368;28;20041;-73
2021/12/17 05:09:07;;;;;;;74.70;17.58;;;8.20;99.90;;;;;;5007238;28;20072;-73
2021/12/17 05:19:47;;;;;;;94.30;17.77;;;8.20;99.90;;;;;;5009023;28;20045;-73
2021/12/17 05:22:13;;;;;;;57.03;15.02;;;8.20;99.90;;;;;;5008969;28;20042;-73
2021/12/17 05:24:39;;;;;;;90.40;17.55;;;8.20;99.90;;;;;;5026429;28;20095;-73
2021/12/17 05:27:05;;;;;;;91.90;16.80;;;8.20;99.90;;;;;;5006022;28;20053;-73
2021/12/17 05:29:31;;;;;;;96.43;17.65;;;8.20;99.90;;;;;;5006980;28;20041;-73
2021/12/17 05:31:57;;;;;;;100.00;17.45;;;8.20;99.90;;;;;;5006326;28;20033;-73
2021/12/17 05:34:24;;;;;;;149.13;17.95;;;8.10;99.90;;;;;;5010029;28;20408;-73
2021/12/17 05:36:49;;;;;;;62.00;14.82;;;8.20;99.90;;;;;;5025552;28;20037;-73
2021/12/17 05:39:15;;;;;;;54.47;15.48;;;8.20;99.90;;;;;;5007951;28;20041;-73
2021/12/17 05:41:41;;;;;;;61.67;17.23;;;8.10;99.90;;;;;;5006086;28;20429;-73
2021/12/17 05:44:07;;;;;;;51.75;14.88;;;8.10;99.90;;;;;;4991872;28;20407;-73
2021/12/17 05:46:48;;;;;;;88.53;17.45;;;8.10;99.90;;;;;;5004289;28;20485;-73
2021/12/17 05:49:15;;;;;;;115.50;16.67;;;8.10;99.90;;;;;;5004459;28;20038;-73
2021/12/17 05:51:41;;;;;;;302.23;20.13;;;8.10;99.90;;;;;;5005502;28;20041;-73
2021/12/17 05:54:07;;;;;;;58.55;15.43;;;8.10;99.90;;;;;;5007050;28;20049;-72
2021/12/17 05:56:32;;;;;;;69.35;16.40;;;8.10;99.90;;;;;;5005853;28;20518;-72
2021/12/17 05:58:58;;;;;;;98.45;17.25;;;8.10;99.90;;;;;;5005590;28;20454;-71
2021/12/17 06:01:24;;;;;;;84.82;16.85;;;8.10;99.90;;;;;;5007339;28;20488;-72
2021/12/17 06:03:49;;;;;;;96.20;16.75;;;8.10;99.90;;;;;;5001462;28;20807;-72
2021/12/17 06:06:47;;;;;;;64.82;16.02;;;8.10;99.90;;;;;;5006010;28;20502;-72
2021/12/17 06:09:13;;;;;;;122.43;18.42;;;8.10;99.90;;;;;;4987077;28;20096;-71
2021/12/17 06:11:39;;;;;;;127.95;19.67;;;8.10;99.90;;;;;;4992690;28;20045;-72
2021/12/17 06:14:05;;;;;;;145.02;19.55;;;8.10;99.90;;;;;;5002797;28;20629;-71
2021/12/17 06:16:33;;;;;;;156.77;20.30;;;8.10;99.90;;;;;;5000644;28;20580;-73
2021/12/17 06:19:01;;;;;;;137.15;20.05;;;8.10;99.90;;;;;;5006013;28;20072;-73
2021/12/17 06:21:26;;;;;;;172.50;22.10;;;8.10;99.90;;;;;;5008415;28;20053;-72
2021/12/17 06:23:52;;;;;;;123.20;24.35;;;8.10;99.90;;;;;;5006783;28;20503;-72
2021/12/17 06:26:18;;;;;;;111.70;19.67;;;8.10;99.90;;;;;;5024523;28;20049;-72
2021/12/17 06:28:45;;;;;;;170.43;20.77;;;8.10;99.90;;;;;;5005354;28;20045;-72
2021/12/17 06:31:10;;;;;;;100.32;19.88;;;8.10;99.90;;;;;;5008634;28;20037;-72
2021/12/17 06:33:36;;;;;;;116.65;20.33;;;8.10;99.90;;;;;;5005077;28;20900;-72
2021/12/17 06:36:02;;;;;;;118.20;21.45;;;8.10;99.90;;;;;;4989585;28;20053;-72
2021/12/17 06:38:27;;;;;;;121.80;21.65;;;8.00;99.90;;;;;;5004734;28;20044;-73
2021/12/17 06:40:53;;;;;;;101.82;22.17;;;8.00;99.90;;;;;;5004180;28;20118;-73
2021/12/17 06:43:26;;;;;;;104.53;21.27;;;8.00;99.90;;;;;;5007130;28;20405;-72
2021/12/17 06:45:58;;;;;;;151.00;21.13;;;8.10;99.90;;;;;;5004006;28;20492;-72
2021/12/17 06:48:27;;;;;;;121.77;19.83;;;8.10;99.90;;;;;;5006803;28;20096;-72
2021/12/17 07:10:05;;;;;;;98.47;21.58;;;8.00;99.90;;;;;;4988016;28;20079;-72
2021/12/17 07:18:16;;;;;;;107.88;20.13;;;8.00;99.90;;;;;;5008304;28;20049;-72
2021/12/17 07:23:13;;;;;;;108.43;21.80;;;8.00;99.90;;;;;;5022284;28;20410;-72
2021/12/17 07:34:00;;;;;;;121.30;21.15;;;7.90;99.90;;;;;;5012867;28;20116;-72
2021/12/17 07:36:39;;;;;;;87.88;21.30;;;8.00;99.90;;;;;;4985974;28;20049;-72
2021/12/17 07:39:08;;;;;;;130.38;22.67;;;7.90;99.90;;;;;;4993648;28;20045;-72
2021/12/17 07:41:40;;;;;;;97.95;20.48;;;8.00;99.90;;;;;;4992826;28;20091;-72
2021/12/17 07:44:07;;;;;;;95.80;21.00;;;8.00;99.90;;;;;;4999377;28;20039;-72
2021/12/17 07:46:36;;;;;;;88.97;20.65;;;7.90;99.90;;;;;;4980322;28;20091;-72
2021/12/17 07:49:02;;;;;;;83.18;24.77;;;8.00;99.90;;;;;;4978037;28;20041;-72
2021/12/17 07:51:27;;;;;;;119.80;21.55;;;7.90;99.90;;;;;;5008860;28;20033;-72
2021/12/17 07:53:54;;;;;;;112.25;21.27;;;8.00;99.90;;;;;;5011171;28;20732;-72
2021/12/17 07:56:24;;;;;;;100.35;21.02;;;8.00;99.90;;;;;;4992199;28;20046;-72
2021/12/17 07:58:50;;;;;;;79.97;20.92;;;8.00;99.90;;;;;;5010461;28;20048;-72
2021/12/17 08:01:17;;;;;;;78.90;20.45;;;8.00;99.90;;;;;;4971999;28;20067;-72
2021/12/17 08:03:43;;;;;;;103.60;21.85;;;8.00;99.90;;;;;;5008354;28;20077;-72
2021/12/17 08:06:10;;;;;;;92.53;21.38;;;8.00;99.90;;;;;;5008968;28;20030;-72
2021/12/17 08:08:36;;;;;;;108.07;22.02;;;8.00;99.90;;;;;;5007662;28;20042;-72
2021/12/17 08:11:03;;;;;;;83.03;20.88;;;8.00;99.90;;;;;;5007032;28;20046;-72
2021/12/17 08:13:32;;;;;;;81.13;20.42;;;8.00;99.90;;;;;;5001948;28;20101;-72
2021/12/17 08:24:43;;;;;;;107.30;27.00;;;8.00;99.90;;;;;;5004823;28;20133;-71
2021/12/17 08:29:56;;;;;;;88.47;21.65;;;8.10;99.90;;;;;;4999043;28;20041;-72
2021/12/17 08:32:22;;;;;;;108.03;37.90;;;8.10;99.90;;;;;;5006011;28;20407;-72
2021/12/17 08:34:48;;;;;;;91.35;21.05;;;8.10;99.90;;;;;;5003099;28;20048;-71
2021/12/17 08:37:16;;;;;;;102.70;36.35;;;8.10;99.90;;;;;;5008827;28;20046;-72
2021/12/17 08:39:42;;;;;;;98.95;20.17;;;8.20;99.90;;;;;;4968744;28;20046;-72
2021/12/17 08:42:08;;;;;;;79.75;20.67;;;8.10;99.90;;;;;;5004784;28;20072;-73
2021/12/17 08:44:34;;;;;;;79.88;20.98;;;8.20;99.90;;;;;;5002984;28;20044;-73
2021/12/17 08:47:05;;;;;;;75.28;20.42;;;8.20;99.90;;;;;;5010749;28;20046;-72
2021/12/17 08:49:38;;;;;;;90.03;21.02;;;8.20;99.90;;;;;;5013542;28;20073;-73
2021/12/17 08:52:04;;;;;;;101.65;19.92;;;8.20;99.90;;;;;;4986544;28;20041;-73
2021/12/17 08:54:30;;;;;;;84.68;19.80;;;8.20;99.90;;;;;;5002187;28;20049;-73
2021/12/17 08:56:55;;;;;;;94.85;20.40;;;8.20;99.90;;;;;;5008061;28;20073;-72
2021/12/17 08:59:22;;;;;;;71.90;18.40;;;8.20;99.90;;;;;;5003950;28;20051;-73
2021/12/17 09:01:48;;;;;;;89.65;20.88;;;8.20;99.90;;;;;;5009401;28;20660;-73
2021/12/17 09:04:14;;;;;;;95.03;20.77;;;8.20;99.90;;;;;;5008886;28;20040;-73
2021/12/17 09:06:40;;;;;;;80.28;19.63;;;8.20;99.90;;;;;;5001678;28;20041;-73
2021/12/17 09:09:06;;;;;;;90.30;20.13;;;8.30;99.90;;;;;;5006999;28;20108;-72
2021/12/17 09:11:32;;;;;;;75.82;20.30;;;8.30;99.90;;;;;;5002919;28;20508;-72
2021/12/17 09:14:00;;;;;;;64.90;22.17;;;8.30;99.90;;;;;;5007430;28;20056;-72
2021/12/17 09:16:26;;;;;;;73.07;20.27;;;8.30;99.90;;;;;;5010288;28;20555;-72
2021/12/17 09:19:03;;;;;;;51.42;17.83;;;8.40;99.90;;;;;;4997951;28;20488;-73
2021/12/17 09:22:11;;;;;;;53.50;18.02;;;8.40;99.90;;;;;;5005612;28;20324;-73
2021/12/17 09:25:21;;;;;;;55.20;17.85;;;8.40;99.90;;;;;;5000043;28;20080;-73
2021/12/17 09:28:34;;;;;;;55.67;22.42;;;8.40;99.90;;;;;;5018814;28;20472;-73
2021/12/17 09:31:14;;;;;;;55.83;20.80;;;8.40;99.90;;;;;;5005596;28;20045;-73
2021/12/17 09:33:47;;;;;;;56.88;19.70;;;8.50;99.90;;;;;;5027237;28;20038;-73
2021/12/17 09:36:20;;;;;;;60.20;20.27;;;8.50;99.90;;;;;;5025321;28;20125;-73
2021/12/17 09:38:49;;;;;;;67.43;26.23;;;8.60;99.90;;;;;;5009252;28;20060;-73
2021/12/17 09:41:19;;;;;;;47.80;17.77;;;8.60;99.90;;;;;;5006605;28;20590;-73
2021/12/17 09:43:49;;;;;;;51.38;19.65;;;8.60;99.90;;;;;;5010715;28;20045;-73
2021/12/17 09:46:26;;;;;;;60.97;20.13;;;8.60;99.90;;;;;;4979897;28;20078;-73
2021/12/17 09:48:54;;;;;;;61.42;19.55;;;8.60;99.90;;;;;;4992438;28;20121;-73
2021/12/17 09:51:20;;;;;;;66.15;28.45;;;8.60;99.90;;;;;;4991455;28;20485;-74
2021/12/17 09:53:47;;;;;;;52.22;19.27;;;8.70;99.90;;;;;;5011329;28;20585;-73
2021/12/17 09:56:13;;;;;;;56.10;19.13;;;8.70;99.90;;;;;;4995025;28;20041;-72
2021/12/17 09:58:40;;;;;;;52.40;22.48;;;8.60;99.90;;;;;;5014443;28;20045;-73
2021/12/17 10:01:20;;;;;;;53.45;22.45;;;8.70;99.90;;;;;;4982769;28;20042;-73
2021/12/17 10:04:53;;;;;;;49.80;18.33;;;8.70;99.90;;;;;;5012314;28;20140;-73
2021/12/17 10:07:30;;;;;;;49.35;18.35;;;8.80;99.90;;;;;;4989708;28;20093;-74
2021/12/17 10:09:59;;;;;;;50.55;22.33;;;8.80;99.90;;;;;;5021309;28;20042;-73
2021/12/17 10:12:29;;;;;;;50.75;19.58;;;8.80;99.90;;;;;;4993569;28;20310;-74
2021/12/17 10:14:59;;;;;;;51.08;18.48;;;8.80;99.90;;;;;;5006804;28;20477;-74
2021/12/17 10:17:29;;;;;;;45.15;17.92;;;8.80;99.90;;;;;;5010717;28;20373;-73
2021/12/17 10:20:03;;;;;;;47.33;18.25;;;8.80;99.90;;;;;;5008725;28;20396;-74
2021/12/17 10:22:31;;;;;;;47.75;18.48;;;8.90;99.90;;;;;;5003755;28;20436;-74
2021/12/17 10:25:07;;;;;;;43.75;16.50;;;8.90;99.90;;;;;;5003142;28;20046;-74
2021/12/17 10:27:36;;;;;;;50.03;17.08;;;8.90;99.90;;;;;;5005464;28;20131;-73
2021/12/17 10:30:35;;;;;;;36.15;15.95;;;8.90;99.90;;;;;;5004919;28;20084;-73
2021/12/17 10:33:07;;;;;;;33.17;15.35;;;9.00;99.90;;;;;;5002065;28;20268;-73
2021/12/17 10:35:40;;;;;;;37.20;15.48;;;9.00;99.90;;;;;;5001200;28;20042;-73
2021/12/17 10:38:10;;;;;;;46.50;27.35;;;9.10;99.90;;;;;;4963609;28;20137;-73
2021/12/17 10:41:06;;;;;;;52.08;29.25;;;9.00;99.90;;;;;;5014114;28;20071;-74
2021/12/17 10:43:38;;;;;;;52.85;27.92;;;9.10;99.90;;;;;;5006334;28;20134;-74
2021/12/17 10:46:19;;;;;;;33.72;15.18;;;9.10;99.90;;;;;;4995274;28;20404;-73
2021/12/17 10:48:52;;;;;;;38.70;16.08;;;9.10;99.90;;;;;;5015427;28;20381;-73
2021/12/17 10:54:15;;;;;;;34.13;17.55;;;9.10;99.90;;;;;;5025365;28;20042;-73
2021/12/17 10:56:50;;;;;;;42.83;23.90;;;9.20;99.90;;;;;;5014946;28;20089;-74
2021/12/17 10:59:19;;;;;;;35.13;15.63;;;9.20;99.90;;;;;;5006150;28;20041;-74
2021/12/17 11:01:48;;;;;;;31.38;14.32;;;9.20;99.90;;;;;;5013110;28;20408;-74
2021/12/17 11:04:30;;;;;;;29.02;14.88;;;9.20;99.90;;;;;;5008923;28;20412;-74
2021/12/17 11:07:22;;;;;;;30.40;15.93;;;9.20;99.90;;;;;;4995745;28;20154;-73
2021/12/17 11:09:57;;;;;;;30.00;14.52;;;9.20;99.90;;;;;;5011901;28;20065;-74
2021/12/17 11:12:52;;;;;;;31.77;15.57;;;9.30;99.90;;;;;;5005909;28;20049;-74
2021/12/17 11:15:24;;;;;;;27.45;15.20;;;9.30;99.90;;;;;;4987620;28;20044;-74
2021/12/17 11:17:57;;;;;;;32.88;15.32;;;9.30;99.90;;;;;;5014578;28;20050;-74
2021/12/17 11:20:28;;;;;;;29.35;15.10;;;9.40;99.90;;;;;;4998458;28;20492;-74
2021/12/17 11:22:56;;;;;;;27.23;14.18;;;9.40;99.90;;;;;;5006042;28;20448;-73
2021/12/17 11:25:31;;;;;;;33.92;19.13;;;9.40;99.90;;;;;;5005375;28;20046;-73
2021/12/17 11:28:13;;;;;;;60.85;45.40;;;9.40;99.90;;;;;;5010180;28;20407;-74
2021/12/17 11:30:48;;;;;;;24.65;14.88;;;9.50;99.90;;;;;;5003109;28;20099;-74
2021/12/17 11:33:14;;;;;;;28.48;14.65;;;9.50;99.90;;;;;;5004891;28;20152;-74
2021/12/17 11:35:43;;;;;;;24.77;13.70;;;9.60;99.90;;;;;;5005028;28;20424;-74
2021/12/17 11:38:20;;;;;;;23.75;12.70;;;9.60;99.90;;;;;;5005635;28;20073;-74
2021/12/17 11:41:07;;;;;;;30.00;13.70;;;9.70;99.90;;;;;;4992162;28;20045;-74
2021/12/17 11:43:53;;;;;;;21.70;13.00;;;9.70;99.90;;;;;;5005870;28;20117;-74
2021/12/17 11:46:27;;;;;;;23.20;12.95;;;9.70;99.90;;;;;;5008465;28;20496;-74
2021/12/17 11:48:57;;;;;;;27.08;13.88;;;9.70;99.90;;;;;;5003188;28;20133;-74
2021/12/17 11:51:26;;;;;;;26.25;13.30;;;9.60;99.90;;;;;;5004035;28;20081;-74
2021/12/17 11:53:52;;;;;;;21.92;13.20;;;9.70;99.90;;;;;;5015700;28;20050;-74
2021/12/17 11:56:31;;;;;;;25.33;13.75;;;9.70;99.90;;;;;;5008584;28;20053;-73
2021/12/17 11:58:57;;;;;;;21.15;12.52;;;9.70;99.90;;;;;;5008205;28;20129;-73
2021/12/17 12:01:46;;;;;;;30.83;20.73;;;9.80;99.90;;;;;;4971923;28;20524;-73
2021/12/17 12:04:25;;;;;;;24.20;12.85;;;9.80;99.90;;;;;;5010984;28;20048;-73
2021/12/17 12:07:09;;;;;;;37.40;27.75;;;9.70;99.90;;;;;;5004948;28;20049;-73
2021/12/17 12:09:59;;;;;;;21.98;14.05;;;9.70;99.90;;;;;;4988764;28;20133;-73
2021/12/17 12:12:40;;;;;;;23.08;12.57;;;9.70;99.90;;;;;;4998023;28;20501;-73
2021/12/17 12:15:24;;;;;;;26.63;16.35;;;9.70;99.90;;;;;;5005264;28;20060;-73
2021/12/17 12:18:08;;;;;;;22.45;12.68;;;9.70;99.90;;;;;;5000890;28;20046;-73
2021/12/17 12:20:46;;;;;;;33.13;24.73;;;9.70;99.90;;;;;;4993764;28;20180;-73
2021/12/17 12:23:24;;;;;;;23.33;13.05;;;9.70;99.90;;;;;;5006092;28;20099;-73
2021/12/17 12:26:04;;;;;;;23.25;12.32;;;9.70;99.90;;;;;;5010212;28;20536;-74
2021/12/17 12:28:45;;;;;;;23.80;12.60;;;9.70;99.90;;;;;;4990874;28;20056;-73
2021/12/17 12:31:18;;;;;;;22.98;13.10;;;9.80;99.90;;;;;;4992722;28;20033;-73
2021/12/17 12:34:03;;;;;;;;;;;9.80;99.90;;;;;;4993366;28;20129;-74
2021/12/17 12:37:24;;;;;;;23.05;12.70;;;9.80;99.90;;;;;;5004960;28;19967;-73
2021/12/17 12:39:53;;;;;;;25.48;12.50;;;9.80;99.90;;;;;;4914481;29;20047;-73
2021/12/17 12:42:30;;;;;;;19.27;11.88;;;9.70;99.90;;;;;;4992176;28;20049;-74
2021/12/17 12:44:55;;;;;;;21.50;12.38;;;9.80;99.90;;;;;;4987396;28;20142;-74
2021/12/17 12:47:24;;;;;;;24.98;12.75;;;9.80;99.90;;;;;;5005603;28;20156;-73
2021/12/17 12:49:56;;;;;;;21.15;12.52;;;9.70;99.90;;;;;;4999523;28;20099;-74
2021/12/17 12:52:34;;;;;;;34.22;20.40;;;9.70;99.90;;;;;;5008724;28;20037;-74
2021/12/17 12:55:20;;;;;;;24.63;12.68;;;9.80;99.90;;;;;;5008623;28;20057;-73
2021/12/17 12:58:07;;;;;;;28.80;16.38;;;9.70;99.90;;;;;;4984764;28;20090;-73
2021/12/17 13:00:56;;;;;;;25.10;13.20;;;9.80;99.90;;;;;;5005101;28;20796;-73
2021/12/17 13:03:31;;;;;;;21.70;12.88;;;9.80;99.90;;;;;;5007108;28;20492;-73
2021/12/17 13:06:01;;;;;;;23.63;12.80;;;9.80;99.90;;;;;;5003269;28;20515;-73
2021/12/17 13:08:30;;;;;;;25.27;13.15;;;9.80;99.90;;;;;;5009696;28;20072;-73
2021/12/17 13:11:01;;;;;;;31.20;20.08;;;9.70;99.90;;;;;;4990138;28;20037;-73
2021/12/17 13:13:52;;;;;;;22.38;12.80;;;9.80;99.90;;;;;;4980985;28;20088;-73
2021/12/17 13:21:47;;;;;;;25.27;13.38;;;9.80;99.90;;;;;;5019867;28;20140;-73
2021/12/17 13:24:17;;;;;;;24.77;13.18;;;9.80;99.90;;;;;;5027291;28;20049;-73
2021/12/17 13:26:47;;;;;;;21.05;14.98;;;9.80;99.90;;;;;;5029386;28;20284;-73
2021/12/17 13:29:24;;;;;;;21.45;13.55;;;9.80;99.90;;;;;;5018063;28;20598;-74
2021/12/17 13:32:07;;;;;;;16.13;9.35;;;9.80;99.90;;;;;;5016579;28;20146;-73
2021/12/17 13:34:44;;;;;;;15.32;9.48;;;9.80;99.90;;;;;;5031327;28;20041;-73
2021/12/17 13:37:22;;;;;;;15.95;8.35;;;9.80;99.90;;;;;;5018954;28;20431;-73
2021/12/17 13:39:54;;;;;;;6.03;4.20;;;9.80;99.90;;;;;;5025555;28;20033;-73
2021/12/17 13:43:04;;;;;;;22.35;5.40;;;9.70;99.90;;;;;;5007141;28;20045;-81
2021/12/17 13:45:30;;;;;;;10.63;6.72;;;9.80;99.90;;;;;;5000839;28;20149;-73
2021/12/17 13:48:02;;;;;;;6.20;4.05;;;9.70;99.90;;;;;;4982420;28;20416;-73
2021/12/17 13:50:41;;;;;;;9.60;4.57;;;9.70;99.90;;;;;;4958109;28;20313;-73
2021/12/17 13:53:15;;;;;;;14.50;11.32;;;9.70;99.90;;;;;;5016188;28;20045;-73
2021/12/17 13:55:44;;;;;;;7.40;5.10;;;9.70;99.90;;;;;;5036003;28;20033;-73
2021/12/17 13:58:24;;;;;;;9.13;6.97;;;9.70;99.90;;;;;;5016464;28;20042;-73
2021/12/17 14:00:53;;;;;;;6.43;3.85;;;9.70;99.90;;;;;;5028856;28;20030;-73
2021/12/17 14:03:22;;;;;;;5.45;4.43;;;9.80;99.90;;;;;;5016735;28;20536;-74
2021/12/17 14:05:51;;;;;;;7.80;5.40;;;9.70;99.90;;;;;;5035978;28;20030;-73
2021/12/17 14:08:21;;;;;;;7.85;6.93;;;9.70;99.90;;;;;;5024837;28;20120;-74
2021/12/17 14:10:49;;;;;;;10.05;8.13;;;9.70;99.90;;;;;;5036630;28;20022;-74
2021/12/17 14:13:16;;;;;;;5.95;3.60;;;9.70;99.90;;;;;;5021853;28;20045;-74
2021/12/17 14:15:43;;;;;;;26.05;18.90;;;9.70;99.90;;;;;;5035284;28;20056;-73
2021/12/17 14:18:13;;;;;;;5.47;4.60;;;9.70;99.90;;;;;;5025596;28;20037;-73
2021/12/17 14:20:42;;;;;;;3.42;2.72;;;9.70;99.90;;;;;;5008550;28;20091;-74
2021/12/17 14:23:15;;;;;;;4.15;3.30;;;9.60;99.90;;;;;;5008822;28;20140;-73
2021/12/17 14:25:48;;;;;;;7.07;5.78;;;9.60;99.90;;;;;;5010468;28;20037;-73
2021/12/17 14:28:13;;;;;;;6.47;5.88;;;9.70;99.90;;;;;;5004278;28;20041;-73
2021/12/17 14:30:53;;;;;;;23.80;21.77;;;9.60;99.90;;;;;;5005308;28;20496;-74
2021/12/17 14:33:21;;;;;;;6.65;6.07;;;9.60;99.90;;;;;;5006820;28;20037;-73
2021/12/17 14:35:53;;;;;;;5.50;3.60;;;9.60;99.90;;;;;;5009655;28;20147;-73
2021/12/17 14:38:22;;;;;;;10.02;9.13;;;9.60;99.90;;;;;;5008583;28;20037;-73
2021/12/17 14:40:56;;;;;;;5.55;5.05;;;9.60;99.90;;;;;;5010773;28;20087;-74
2021/12/17 14:43:40;;;;;;;4.95;4.13;;;9.60;99.90;;;;;;5003023;28;20045;-73
2021/12/17 14:46:18;;;;;;;7.53;5.30;;;9.60;99.90;;;;;;5007206;28;20121;-72
2021/12/17 15:04:44;;;;;;;6.60;4.38;;;9.50;99.90;;;;;;4998946;28;20045;-75
2021/12/17 15:07:10;;;;;;;6.10;4.72;;;9.50;99.90;;;;;;5009083;28;20076;-75
2021/12/17 15:09:40;;;;;;;12.63;8.57;;;9.50;99.90;;;;;;5004703;28;22051;-74
2021/12/17 15:12:26;;;;;;;6.75;5.35;;;9.50;99.90;;;;;;5004739;28;20125;-74
2021/12/17 15:14:52;;;;;;;6.13;5.15;;;9.50;99.90;;;;;;5006570;28;20046;-74
2021/12/17 15:17:20;;;;;;;9.40;5.40;;;9.50;99.90;;;;;;5007718;28;20454;-74
2021/12/17 15:19:46;;;;;;;7.65;5.57;;;9.40;99.90;;;;;;4986117;28;20045;-74
2021/12/17 15:22:12;;;;;;;6.68;5.55;;;9.40;99.90;;;;;;5020924;28;20041;-75
2021/12/17 15:24:38;;;;;;;6.28;5.65;;;9.40;99.90;;;;;;5004256;28;20048;-74
2021/12/17 15:27:04;;;;;;;9.38;6.10;;;9.40;99.90;;;;;;5007057;28;20383;-74
2021/12/17 15:29:30;;;;;;;6.35;5.55;;;9.40;99.90;;;;;;5003041;28;20041;-75
2021/12/17 15:31:55;;;;;;;6.38;5.40;;;9.40;99.90;;;;;;5002589;28;20447;-75
2021/12/17 15:34:21;;;;;;;9.05;6.05;;;9.40;99.90;;;;;;5002202;28;20045;-76
2021/12/17 15:36:47;;;;;;;8.80;6.15;;;9.40;99.90;;;;;;5004269;28;20407;-74
2021/12/17 15:39:12;;;;;;;8.68;6.68;;;9.30;99.90;;;;;;4988924;28;20045;-74
2021/12/17 15:41:42;;;;;;;9.38;6.57;;;9.30;99.90;;;;;;5004718;28;20445;-74
2021/12/17 15:44:09;;;;;;;9.95;7.60;;;9.30;99.90;;;;;;5007262;28;20437;-74
2021/12/17 15:46:36;;;;;;;12.57;8.27;;;9.40;99.90;;;;;;5019918;28;20132;-74
2021/12/17 15:49:03;;;;;;;14.52;9.73;;;9.30;99.90;;;;;;5019730;28;20034;-75
2021/12/17 15:51:29;;;;;;;15.27;8.88;;;9.30;99.90;;;;;;5004748;28;20037;-74
2021/12/17 15:53:55;;;;;;;12.48;7.93;;;9.30;99.90;;;;;;5005698;28;20048;-74
2021/12/17 15:56:21;;;;;;;12.48;8.43;;;9.30;99.90;;;;;;5001934;28;20476;-74
2021/12/17 15:58:47;;;;;;;13.43;9.70;;;9.30;99.90;;;;;;5002317;28;20033;-74